sensor_id;sensor_type;location;lat;lon;timestamp;P1;durP1;ratioP1;P2;durP2;ratioP2
809;SDS011;387;48.772;9.186;2022-12-13T00:00:32;37.17;;;17.63;;
809;SDS011;387;48.772;9.186;2022-12-13T00:02:57;41.83;;;18.43;;
809;SDS011;387;48.772;9.186;2022-12-13T00:05:23;40.03;;;19.50;;
809;SDS011;387;48.772;9.186;2022-12-13T00:07:48;39.43;;;18.47;;
809;SDS011;387;48.772;9.186;2022-12-13T00:10:14;46.63;;;20.37;;
809;SDS011;387;48.772;9.186;2022-12-13T00:12:39;44.67;;;20.07;;
809;SDS011;387;48.772;9.186;2022-12-13T00:15:05;39.27;;;18.40;;
809;SDS011;387;48.772;9.186;2022-12-13T00:17:31;37.20;;;17.73;;
809;SDS011;387;48.772;9.186;2022-12-13T00:19:57;47.67;;;19.40;;
809;SDS011;387;48.772;9.186;2022-12-13T00:22:23;38.63;;;17.70;;
809;SDS011;387;48.772;9.186;2022-12-13T00:24:48;39.73;;;18.13;;
809;SDS011;387;48.772;9.186;2022-12-13T00:27:14;41.60;;;19.53;;
809;SDS011;387;48.772;9.186;2022-12-13T00:29:39;39.37;;;17.20;;
809;SDS011;387;48.772;9.186;2022-12-13T00:32:05;34.53;;;16.97;;
809;SDS011;387;48.772;9.186;2022-12-13T00:34:30;43.13;;;19.97;;
809;SDS011;387;48.772;9.186;2022-12-13T00:36:56;38.60;;;19.13;;
809;SDS011;387;48.772;9.186;2022-12-13T00:39:24;49.60;;;21.45;;
809;SDS011;387;48.772;9.186;2022-12-13T00:41:50;57.13;;;23.55;;
809;SDS011;387;48.772;9.186;2022-12-13T00:44:16;45.33;;;19.90;;
809;SDS011;387;48.772;9.186;2022-12-13T00:46:43;53.25;;;22.98;;
809;SDS011;387;48.772;9.186;2022-12-13T00:49:09;47.90;;;22.67;;
809;SDS011;387;48.772;9.186;2022-12-13T00:51:36;44.13;;;20.58;;
809;SDS011;387;48.772;9.186;2022-12-13T00:54:01;51.40;;;22.57;;
809;SDS011;387;48.772;9.186;2022-12-13T00:56:29;53.27;;;21.40;;
809;SDS011;387;48.772;9.186;2022-12-13T00:58:56;55.05;;;20.83;;
809;SDS011;387;48.772;9.186;2022-12-13T01:01:22;50.57;;;20.43;;
809;SDS011;387;48.772;9.186;2022-12-13T01:03:50;45.70;;;18.70;;
809;SDS011;387;48.772;9.186;2022-12-13T01:06:19;43.78;;;19.73;;
809;SDS011;387;48.772;9.186;2022-12-13T01:09:06;43.35;;;20.77;;
809;SDS011;387;48.772;9.186;2022-12-13T01:11:36;45.65;;;19.85;;
809;SDS011;387;48.772;9.186;2022-12-13T01:14:02;48.80;;;22.17;;
809;SDS011;387;48.772;9.186;2022-12-13T01:16:27;46.40;;;20.47;;
809;SDS011;387;48.772;9.186;2022-12-13T01:18:53;46.80;;;19.40;;
809;SDS011;387;48.772;9.186;2022-12-13T01:21:21;43.67;;;19.33;;
809;SDS011;387;48.772;9.186;2022-12-13T01:23:47;41.73;;;19.80;;
809;SDS011;387;48.772;9.186;2022-12-13T01:26:14;49.40;;;20.15;;
809;SDS011;387;48.772;9.186;2022-12-13T01:28:43;44.38;;;20.00;;
809;SDS011;387;48.772;9.186;2022-12-13T01:31:10;45.60;;;20.00;;
809;SDS011;387;48.772;9.186;2022-12-13T01:33:40;49.45;;;21.15;;
809;SDS011;387;48.772;9.186;2022-12-13T01:36:07;44.85;;;21.65;;
809;SDS011;387;48.772;9.186;2022-12-13T01:38:35;53.75;;;22.65;;
809;SDS011;387;48.772;9.186;2022-12-13T01:41:00;54.43;;;22.20;;
809;SDS011;387;48.772;9.186;2022-12-13T01:43:28;58.53;;;24.48;;
809;SDS011;387;48.772;9.186;2022-12-13T01:46:14;51.45;;;22.73;;
809;SDS011;387;48.772;9.186;2022-12-13T01:48:44;42.03;;;20.90;;
809;SDS011;387;48.772;9.186;2022-12-13T01:51:16;45.40;;;19.65;;
809;SDS011;387;48.772;9.186;2022-12-13T01:53:45;51.90;;;20.80;;
809;SDS011;387;48.772;9.186;2022-12-13T01:56:17;51.83;;;20.70;;
809;SDS011;387;48.772;9.186;2022-12-13T01:58:46;47.50;;;21.92;;
809;SDS011;387;48.772;9.186;2022-12-13T02:01:13;46.42;;;21.33;;
809;SDS011;387;48.772;9.186;2022-12-13T02:03:39;45.27;;;20.90;;
809;SDS011;387;48.772;9.186;2022-12-13T02:06:09;50.93;;;20.63;;
809;SDS011;387;48.772;9.186;2022-12-13T02:08:39;43.35;;;20.50;;
809;SDS011;387;48.772;9.186;2022-12-13T02:11:06;57.45;;;22.67;;
809;SDS011;387;48.772;9.186;2022-12-13T02:13:34;57.00;;;22.40;;
809;SDS011;387;48.772;9.186;2022-12-13T02:16:07;45.97;;;19.87;;
809;SDS011;387;48.772;9.186;2022-12-13T02:18:55;43.78;;;20.45;;
809;SDS011;387;48.772;9.186;2022-12-13T02:21:48;48.08;;;20.90;;
809;SDS011;387;48.772;9.186;2022-12-13T02:27:21;51.75;;;21.02;;
809;SDS011;387;48.772;9.186;2022-12-13T02:30:22;52.03;;;21.30;;
809;SDS011;387;48.772;9.186;2022-12-13T02:32:55;46.38;;;20.80;;
809;SDS011;387;48.772;9.186;2022-12-13T02:39:21;50.70;;;21.48;;
809;SDS011;387;48.772;9.186;2022-12-13T02:41:37;52.38;;;22.42;;
809;SDS011;387;48.772;9.186;2022-12-13T02:44:16;48.80;;;21.85;;
809;SDS011;387;48.772;9.186;2022-12-13T02:46:57;52.92;;;20.67;;
809;SDS011;387;48.772;9.186;2022-12-13T02:49:38;40.47;;;18.60;;
809;SDS011;387;48.772;9.186;2022-12-13T02:52:06;48.63;;;20.83;;
809;SDS011;387;48.772;9.186;2022-12-13T02:54:34;45.65;;;20.67;;
809;SDS011;387;48.772;9.186;2022-12-13T02:57:01;53.92;;;21.70;;
809;SDS011;387;48.772;9.186;2022-12-13T02:59:28;43.10;;;19.80;;
809;SDS011;387;48.772;9.186;2022-12-13T03:07:50;42.65;;;18.08;;
809;SDS011;387;48.772;9.186;2022-12-13T03:10:42;44.03;;;19.35;;
809;SDS011;387;48.772;9.186;2022-12-13T03:13:25;51.42;;;20.25;;
809;SDS011;387;48.772;9.186;2022-12-13T03:17:02;44.60;;;19.80;;
809;SDS011;387;48.772;9.186;2022-12-13T03:19:03;41.17;;;19.63;;
809;SDS011;387;48.772;9.186;2022-12-13T03:21:46;44.42;;;19.90;;
809;SDS011;387;48.772;9.186;2022-12-13T03:24:17;41.55;;;18.30;;
809;SDS011;387;48.772;9.186;2022-12-13T03:26:44;46.15;;;19.30;;
809;SDS011;387;48.772;9.186;2022-12-13T03:29:11;58.15;;;20.48;;
809;SDS011;387;48.772;9.186;2022-12-13T03:31:36;49.13;;;21.73;;
809;SDS011;387;48.772;9.186;2022-12-13T03:34:02;45.10;;;19.77;;
809;SDS011;387;48.772;9.186;2022-12-13T03:36:27;50.23;;;22.20;;
809;SDS011;387;48.772;9.186;2022-12-13T03:38:53;56.80;;;22.60;;
809;SDS011;387;48.772;9.186;2022-12-13T03:41:21;47.30;;;20.60;;
809;SDS011;387;48.772;9.186;2022-12-13T03:43:55;44.97;;;19.48;;
809;SDS011;387;48.772;9.186;2022-12-13T03:46:27;45.15;;;19.65;;
809;SDS011;387;48.772;9.186;2022-12-13T03:48:52;57.97;;;23.03;;
809;SDS011;387;48.772;9.186;2022-12-13T03:51:18;44.60;;;19.17;;
809;SDS011;387;48.772;9.186;2022-12-13T03:53:43;45.27;;;19.70;;
809;SDS011;387;48.772;9.186;2022-12-13T03:56:09;43.53;;;19.83;;
809;SDS011;387;48.772;9.186;2022-12-13T03:58:35;44.10;;;20.80;;
809;SDS011;387;48.772;9.186;2022-12-13T04:01:00;38.70;;;20.00;;
809;SDS011;387;48.772;9.186;2022-12-13T04:03:26;48.13;;;19.63;;
809;SDS011;387;48.772;9.186;2022-12-13T04:05:51;42.77;;;19.40;;
809;SDS011;387;48.772;9.186;2022-12-13T04:08:17;44.37;;;18.67;;
809;SDS011;387;48.772;9.186;2022-12-13T04:10:42;51.30;;;19.60;;
809;SDS011;387;48.772;9.186;2022-12-13T04:13:09;42.77;;;18.57;;
809;SDS011;387;48.772;9.186;2022-12-13T04:15:53;42.63;;;18.20;;
809;SDS011;387;48.772;9.186;2022-12-13T04:18:19;47.30;;;19.17;;
809;SDS011;387;48.772;9.186;2022-12-13T04:20:45;42.33;;;18.30;;
809;SDS011;387;48.772;9.186;2022-12-13T04:23:11;48.05;;;18.30;;
809;SDS011;387;48.772;9.186;2022-12-13T04:25:37;39.27;;;19.33;;
809;SDS011;387;48.772;9.186;2022-12-13T04:28:04;47.05;;;20.20;;
809;SDS011;387;48.772;9.186;2022-12-13T04:30:30;45.10;;;19.52;;
809;SDS011;387;48.772;9.186;2022-12-13T04:32:55;47.73;;;21.43;;
809;SDS011;387;48.772;9.186;2022-12-13T04:35:21;46.43;;;19.43;;
809;SDS011;387;48.772;9.186;2022-12-13T04:37:47;53.93;;;21.47;;
809;SDS011;387;48.772;9.186;2022-12-13T04:40:12;46.27;;;21.10;;
809;SDS011;387;48.772;9.186;2022-12-13T04:42:38;41.77;;;19.93;;
809;SDS011;387;48.772;9.186;2022-12-13T04:45:04;46.00;;;19.93;;
809;SDS011;387;48.772;9.186;2022-12-13T04:47:30;48.88;;;19.38;;
809;SDS011;387;48.772;9.186;2022-12-13T04:49:56;41.30;;;19.00;;
809;SDS011;387;48.772;9.186;2022-12-13T04:52:21;49.57;;;20.63;;
809;SDS011;387;48.772;9.186;2022-12-13T04:54:47;44.83;;;18.40;;
809;SDS011;387;48.772;9.186;2022-12-13T04:57:12;43.60;;;18.47;;
809;SDS011;387;48.772;9.186;2022-12-13T04:59:38;44.07;;;18.43;;
809;SDS011;387;48.772;9.186;2022-12-13T05:02:05;43.55;;;17.27;;
809;SDS011;387;48.772;9.186;2022-12-13T05:04:32;41.05;;;19.20;;
809;SDS011;387;48.772;9.186;2022-12-13T05:06:58;42.42;;;18.70;;
809;SDS011;387;48.772;9.186;2022-12-13T05:09:24;47.45;;;20.83;;
809;SDS011;387;48.772;9.186;2022-12-13T05:11:50;44.43;;;18.57;;
809;SDS011;387;48.772;9.186;2022-12-13T05:14:15;47.17;;;18.37;;
809;SDS011;387;48.772;9.186;2022-12-13T05:16:41;41.00;;;17.40;;
809;SDS011;387;48.772;9.186;2022-12-13T05:19:06;41.50;;;18.00;;
809;SDS011;387;48.772;9.186;2022-12-13T05:21:32;34.43;;;15.43;;
809;SDS011;387;48.772;9.186;2022-12-13T05:23:59;41.83;;;17.27;;
809;SDS011;387;48.772;9.186;2022-12-13T05:26:26;42.33;;;16.83;;
809;SDS011;387;48.772;9.186;2022-12-13T05:28:54;42.15;;;17.08;;
809;SDS011;387;48.772;9.186;2022-12-13T05:31:20;40.75;;;17.02;;
809;SDS011;387;48.772;9.186;2022-12-13T05:33:46;42.43;;;17.83;;
809;SDS011;387;48.772;9.186;2022-12-13T05:36:11;34.73;;;16.27;;
809;SDS011;387;48.772;9.186;2022-12-13T05:38:37;34.17;;;15.37;;
809;SDS011;387;48.772;9.186;2022-12-13T05:41:02;33.87;;;15.93;;
809;SDS011;387;48.772;9.186;2022-12-13T05:43:28;39.67;;;16.17;;
809;SDS011;387;48.772;9.186;2022-12-13T05:45:54;42.47;;;15.10;;
809;SDS011;387;48.772;9.186;2022-12-13T05:48:19;46.10;;;18.00;;
809;SDS011;387;48.772;9.186;2022-12-13T05:50:45;34.27;;;15.53;;
809;SDS011;387;48.772;9.186;2022-12-13T05:53:11;31.87;;;15.07;;
809;SDS011;387;48.772;9.186;2022-12-13T05:55:36;38.63;;;16.57;;
809;SDS011;387;48.772;9.186;2022-12-13T05:58:02;40.97;;;15.57;;
809;SDS011;387;48.772;9.186;2022-12-13T06:00:29;34.83;;;17.30;;
809;SDS011;387;48.772;9.186;2022-12-13T06:02:55;37.38;;;16.98;;
809;SDS011;387;48.772;9.186;2022-12-13T06:05:21;43.08;;;16.00;;
809;SDS011;387;48.772;9.186;2022-12-13T06:07:46;65.23;;;20.57;;
809;SDS011;387;48.772;9.186;2022-12-13T06:10:12;40.17;;;16.00;;
809;SDS011;387;48.772;9.186;2022-12-13T06:12:38;44.13;;;17.30;;
809;SDS011;387;48.772;9.186;2022-12-13T06:15:04;40.67;;;15.83;;
809;SDS011;387;48.772;9.186;2022-12-13T06:17:31;42.50;;;17.75;;
809;SDS011;387;48.772;9.186;2022-12-13T06:19:57;35.58;;;16.55;;
809;SDS011;387;48.772;9.186;2022-12-13T06:22:22;44.03;;;18.20;;
809;SDS011;387;48.772;9.186;2022-12-13T06:24:48;41.43;;;17.60;;
809;SDS011;387;48.772;9.186;2022-12-13T06:27:13;40.73;;;18.47;;
809;SDS011;387;48.772;9.186;2022-12-13T06:29:39;44.67;;;18.60;;
809;SDS011;387;48.772;9.186;2022-12-13T06:32:04;42.63;;;17.53;;
809;SDS011;387;48.772;9.186;2022-12-13T06:34:31;45.63;;;19.67;;
809;SDS011;387;48.772;9.186;2022-12-13T06:36:58;36.05;;;17.95;;
809;SDS011;387;48.772;9.186;2022-12-13T06:39:25;37.42;;;18.05;;
809;SDS011;387;48.772;9.186;2022-12-13T06:41:50;44.33;;;18.40;;
809;SDS011;387;48.772;9.186;2022-12-13T06:44:16;44.80;;;19.43;;
809;SDS011;387;48.772;9.186;2022-12-13T06:46:41;45.60;;;19.20;;
809;SDS011;387;48.772;9.186;2022-12-13T06:49:08;49.80;;;20.50;;
809;SDS011;387;48.772;9.186;2022-12-13T06:51:33;44.30;;;19.00;;
809;SDS011;387;48.772;9.186;2022-12-13T06:54:00;46.07;;;20.50;;
809;SDS011;387;48.772;9.186;2022-12-13T06:56:28;47.28;;;20.40;;
809;SDS011;387;48.772;9.186;2022-12-13T06:58:54;57.28;;;20.60;;
809;SDS011;387;48.772;9.186;2022-12-13T07:01:20;48.03;;;20.73;;
809;SDS011;387;48.772;9.186;2022-12-13T07:03:46;50.57;;;19.53;;
809;SDS011;387;48.772;9.186;2022-12-13T07:06:15;48.00;;;19.10;;
809;SDS011;387;48.772;9.186;2022-12-13T07:08:43;50.25;;;16.27;;
809;SDS011;387;48.772;9.186;2022-12-13T07:11:13;36.72;;;17.63;;
809;SDS011;387;48.772;9.186;2022-12-13T07:13:39;35.85;;;15.48;;
809;SDS011;387;48.772;9.186;2022-12-13T07:16:05;36.20;;;17.83;;
809;SDS011;387;48.772;9.186;2022-12-13T07:18:31;42.53;;;17.93;;
809;SDS011;387;48.772;9.186;2022-12-13T07:20:56;43.90;;;20.93;;
809;SDS011;387;48.772;9.186;2022-12-13T07:23:22;47.17;;;19.57;;
809;SDS011;387;48.772;9.186;2022-12-13T07:25:51;49.63;;;19.70;;
809;SDS011;387;48.772;9.186;2022-12-13T07:28:17;52.13;;;19.30;;
809;SDS011;387;48.772;9.186;2022-12-13T07:30:43;43.47;;;18.75;;
809;SDS011;387;48.772;9.186;2022-12-13T07:33:10;43.50;;;18.85;;
809;SDS011;387;48.772;9.186;2022-12-13T07:35:36;39.88;;;17.40;;
809;SDS011;387;48.772;9.186;2022-12-13T07:38:02;42.40;;;18.00;;
809;SDS011;387;48.772;9.186;2022-12-13T07:40:28;36.58;;;17.88;;
809;SDS011;387;48.772;9.186;2022-12-13T07:42:55;36.20;;;17.03;;
809;SDS011;387;48.772;9.186;2022-12-13T07:45:21;45.15;;;18.55;;
809;SDS011;387;48.772;9.186;2022-12-13T07:47:48;42.85;;;18.58;;
809;SDS011;387;48.772;9.186;2022-12-13T07:50:13;30.77;;;15.10;;
809;SDS011;387;48.772;9.186;2022-12-13T07:52:39;40.83;;;15.95;;
809;SDS011;387;48.772;9.186;2022-12-13T07:55:06;40.63;;;16.80;;
809;SDS011;387;48.772;9.186;2022-12-13T07:57:33;41.03;;;17.98;;
809;SDS011;387;48.772;9.186;2022-12-13T07:59:59;36.97;;;16.77;;
809;SDS011;387;48.772;9.186;2022-12-13T08:02:24;41.33;;;18.77;;
809;SDS011;387;48.772;9.186;2022-12-13T08:04:51;39.57;;;16.60;;
809;SDS011;387;48.772;9.186;2022-12-13T08:07:17;37.45;;;17.92;;
809;SDS011;387;48.772;9.186;2022-12-13T08:09:42;37.23;;;16.63;;
809;SDS011;387;48.772;9.186;2022-12-13T08:12:08;41.13;;;17.33;;
809;SDS011;387;48.772;9.186;2022-12-13T08:14:33;37.63;;;17.20;;
809;SDS011;387;48.772;9.186;2022-12-13T08:16:59;35.37;;;16.20;;
809;SDS011;387;48.772;9.186;2022-12-13T08:19:25;37.70;;;16.47;;
809;SDS011;387;48.772;9.186;2022-12-13T08:21:51;40.30;;;18.43;;
809;SDS011;387;48.772;9.186;2022-12-13T08:24:17;39.90;;;18.60;;
809;SDS011;387;48.772;9.186;2022-12-13T08:26:43;56.85;;;18.50;;
809;SDS011;387;48.772;9.186;2022-12-13T08:29:08;46.70;;;17.80;;
809;SDS011;387;48.772;9.186;2022-12-13T08:31:35;46.63;;;19.02;;
809;SDS011;387;48.772;9.186;2022-12-13T08:34:01;33.27;;;16.07;;
809;SDS011;387;48.772;9.186;2022-12-13T08:36:26;43.60;;;19.07;;
809;SDS011;387;48.772;9.186;2022-12-13T08:38:53;40.73;;;19.40;;
809;SDS011;387;48.772;9.186;2022-12-13T08:41:20;44.22;;;17.70;;
809;SDS011;387;48.772;9.186;2022-12-13T08:43:46;45.97;;;19.57;;
809;SDS011;387;48.772;9.186;2022-12-13T08:46:12;43.28;;;19.50;;
809;SDS011;387;48.772;9.186;2022-12-13T08:48:37;45.03;;;18.53;;
809;SDS011;387;48.772;9.186;2022-12-13T08:51:04;39.00;;;16.87;;
809;SDS011;387;48.772;9.186;2022-12-13T08:53:32;40.47;;;18.30;;
809;SDS011;387;48.772;9.186;2022-12-13T08:55:59;46.42;;;17.90;;
809;SDS011;387;48.772;9.186;2022-12-13T08:58:30;42.05;;;18.02;;
809;SDS011;387;48.772;9.186;2022-12-13T09:00:55;40.07;;;19.10;;
809;SDS011;387;48.772;9.186;2022-12-13T09:03:22;40.20;;;18.03;;
809;SDS011;387;48.772;9.186;2022-12-13T09:05:47;31.42;;;16.90;;
809;SDS011;387;48.772;9.186;2022-12-13T09:08:13;48.43;;;18.43;;
809;SDS011;387;48.772;9.186;2022-12-13T09:10:39;44.17;;;17.83;;
809;SDS011;387;48.772;9.186;2022-12-13T09:13:04;42.20;;;17.00;;
809;SDS011;387;48.772;9.186;2022-12-13T09:15:31;40.13;;;16.30;;
809;SDS011;387;48.772;9.186;2022-12-13T09:17:57;39.75;;;18.05;;
809;SDS011;387;48.772;9.186;2022-12-13T09:20:23;40.57;;;17.77;;
809;SDS011;387;48.772;9.186;2022-12-13T09:22:48;46.83;;;19.10;;
809;SDS011;387;48.772;9.186;2022-12-13T09:25:14;34.63;;;16.40;;
809;SDS011;387;48.772;9.186;2022-12-13T09:27:40;48.97;;;18.13;;
809;SDS011;387;48.772;9.186;2022-12-13T09:30:06;43.57;;;17.13;;
809;SDS011;387;48.772;9.186;2022-12-13T09:32:36;40.72;;;15.95;;
809;SDS011;387;48.772;9.186;2022-12-13T09:35:03;35.65;;;15.70;;
809;SDS011;387;48.772;9.186;2022-12-13T09:37:29;37.63;;;15.00;;
809;SDS011;387;48.772;9.186;2022-12-13T09:39:54;42.13;;;17.93;;
809;SDS011;387;48.772;9.186;2022-12-13T09:42:21;36.53;;;16.43;;
809;SDS011;387;48.772;9.186;2022-12-13T09:44:51;32.80;;;15.40;;
809;SDS011;387;48.772;9.186;2022-12-13T09:47:29;42.35;;;15.27;;
809;SDS011;387;48.772;9.186;2022-12-13T09:49:59;37.92;;;15.60;;
809;SDS011;387;48.772;9.186;2022-12-13T09:52:26;40.28;;;15.38;;
809;SDS011;387;48.772;9.186;2022-12-13T09:55:00;32.95;;;14.73;;
809;SDS011;387;48.772;9.186;2022-12-13T09:57:27;37.23;;;16.13;;
809;SDS011;387;48.772;9.186;2022-12-13T09:59:54;28.65;;;13.90;;
809;SDS011;387;48.772;9.186;2022-12-13T10:02:25;36.38;;;15.73;;
809;SDS011;387;48.772;9.186;2022-12-13T10:04:53;34.45;;;15.50;;
809;SDS011;387;48.772;9.186;2022-12-13T10:07:37;38.50;;;14.70;;
809;SDS011;387;48.772;9.186;2022-12-13T10:10:05;43.08;;;17.73;;
809;SDS011;387;48.772;9.186;2022-12-13T10:12:30;35.10;;;15.00;;
809;SDS011;387;48.772;9.186;2022-12-13T10:14:59;38.53;;;14.63;;
809;SDS011;387;48.772;9.186;2022-12-13T10:17:27;34.72;;;15.02;;
809;SDS011;387;48.772;9.186;2022-12-13T10:20:00;33.10;;;15.50;;
809;SDS011;387;48.772;9.186;2022-12-13T10:22:26;32.08;;;15.07;;
809;SDS011;387;48.772;9.186;2022-12-13T10:27:37;32.25;;;15.45;;
809;SDS011;387;48.772;9.186;2022-12-13T10:30:15;26.98;;;14.07;;
809;SDS011;387;48.772;9.186;2022-12-13T10:32:53;36.63;;;15.27;;
809;SDS011;387;48.772;9.186;2022-12-13T10:35:26;35.10;;;14.77;;
809;SDS011;387;48.772;9.186;2022-12-13T10:37:59;37.85;;;13.60;;
809;SDS011;387;48.772;9.186;2022-12-13T10:40:44;36.33;;;14.57;;
809;SDS011;387;48.772;9.186;2022-12-13T10:45:57;30.27;;;13.50;;
809;SDS011;387;48.772;9.186;2022-12-13T10:48:35;29.75;;;14.20;;
809;SDS011;387;48.772;9.186;2022-12-13T10:53:44;34.03;;;14.05;;
809;SDS011;387;48.772;9.186;2022-12-13T10:56:12;27.48;;;13.82;;
809;SDS011;387;48.772;9.186;2022-12-13T10:58:38;26.70;;;13.80;;
809;SDS011;387;48.772;9.186;2022-12-13T11:04:03;25.58;;;13.15;;
809;SDS011;387;48.772;9.186;2022-12-13T11:06:44;32.22;;;13.38;;
809;SDS011;387;48.772;9.186;2022-12-13T11:09:14;38.28;;;14.60;;
809;SDS011;387;48.772;9.186;2022-12-13T11:11:57;34.58;;;13.55;;
809;SDS011;387;48.772;9.186;2022-12-13T11:14:27;42.83;;;13.52;;
809;SDS011;387;48.772;9.186;2022-12-13T11:16:57;33.47;;;13.32;;
809;SDS011;387;48.772;9.186;2022-12-13T11:21:56;28.67;;;13.10;;
809;SDS011;387;48.772;9.186;2022-12-13T11:24:24;29.95;;;13.43;;
809;SDS011;387;48.772;9.186;2022-12-13T11:26:56;35.70;;;12.52;;
809;SDS011;387;48.772;9.186;2022-12-13T11:42:52;30.50;;;13.63;;
809;SDS011;387;48.772;9.186;2022-12-13T11:48:02;29.05;;;12.32;;
809;SDS011;387;48.772;9.186;2022-12-13T11:50:34;31.10;;;13.15;;
809;SDS011;387;48.772;9.186;2022-12-13T12:01:04;31.63;;;12.20;;
809;SDS011;387;48.772;9.186;2022-12-13T12:03:41;32.78;;;13.93;;
809;SDS011;387;48.772;9.186;2022-12-13T12:06:16;36.35;;;13.43;;
809;SDS011;387;48.772;9.186;2022-12-13T12:08:46;28.88;;;12.27;;
809;SDS011;387;48.772;9.186;2022-12-13T12:11:32;35.85;;;13.82;;
809;SDS011;387;48.772;9.186;2022-12-13T12:16:54;30.80;;;13.73;;
809;SDS011;387;48.772;9.186;2022-12-13T12:19:22;30.63;;;13.00;;
809;SDS011;387;48.772;9.186;2022-12-13T12:28:08;28.83;;;13.52;;
809;SDS011;387;48.772;9.186;2022-12-13T12:31:10;29.05;;;13.07;;
809;SDS011;387;48.772;9.186;2022-12-13T12:41:31;43.30;;;15.40;;
809;SDS011;387;48.772;9.186;2022-12-13T12:47:06;40.67;;;13.40;;
809;SDS011;387;48.772;9.186;2022-12-13T12:55:54;34.35;;;12.05;;
809;SDS011;387;48.772;9.186;2022-12-13T12:59:03;26.48;;;11.98;;
809;SDS011;387;48.772;9.186;2022-12-13T13:01:41;31.95;;;13.80;;
809;SDS011;387;48.772;9.186;2022-12-13T13:04:17;29.75;;;13.88;;
809;SDS011;387;48.772;9.186;2022-12-13T13:06:53;27.88;;;13.60;;
809;SDS011;387;48.772;9.186;2022-12-13T13:09:23;35.30;;;13.40;;
809;SDS011;387;48.772;9.186;2022-12-13T13:11:49;31.48;;;13.50;;
809;SDS011;387;48.772;9.186;2022-12-13T13:14:34;28.67;;;12.88;;
809;SDS011;387;48.772;9.186;2022-12-13T13:17:44;27.00;;;13.13;;
809;SDS011;387;48.772;9.186;2022-12-13T13:19:55;35.95;;;13.25;;
809;SDS011;387;48.772;9.186;2022-12-13T13:22:43;34.15;;;13.32;;
809;SDS011;387;48.772;9.186;2022-12-13T13:27:35;34.93;;;13.00;;
809;SDS011;387;48.772;9.186;2022-12-13T13:30:27;32.90;;;14.27;;
809;SDS011;387;48.772;9.186;2022-12-13T13:32:53;28.55;;;14.13;;
809;SDS011;387;48.772;9.186;2022-12-13T13:37:56;36.55;;;13.50;;
809;SDS011;387;48.772;9.186;2022-12-13T13:48:17;27.85;;;11.63;;
809;SDS011;387;48.772;9.186;2022-12-13T14:11:36;21.75;;;9.80;;
809;SDS011;387;48.772;9.186;2022-12-13T14:20:28;25.20;;;10.70;;
809;SDS011;387;48.772;9.186;2022-12-13T14:28:50;25.00;;;10.05;;
809;SDS011;387;48.772;9.186;2022-12-13T14:31:22;33.53;;;10.85;;
809;SDS011;387;48.772;9.186;2022-12-13T14:33:52;22.67;;;10.65;;
809;SDS011;387;48.772;9.186;2022-12-13T14:36:25;32.58;;;11.68;;
809;SDS011;387;48.772;9.186;2022-12-13T14:38:59;22.30;;;9.70;;
809;SDS011;387;48.772;9.186;2022-12-13T14:41:45;28.48;;;10.35;;
809;SDS011;387;48.772;9.186;2022-12-13T14:44:23;25.35;;;11.93;;
809;SDS011;387;48.772;9.186;2022-12-13T14:46:54;26.23;;;12.18;;
809;SDS011;387;48.772;9.186;2022-12-13T14:49:22;23.92;;;10.63;;
809;SDS011;387;48.772;9.186;2022-12-13T14:51:52;26.23;;;10.50;;
809;SDS011;387;48.772;9.186;2022-12-13T14:54:29;19.30;;;9.75;;
809;SDS011;387;48.772;9.186;2022-12-13T14:57:14;24.00;;;11.13;;
809;SDS011;387;48.772;9.186;2022-12-13T14:59:48;25.90;;;10.73;;
809;SDS011;387;48.772;9.186;2022-12-13T15:02:16;26.75;;;10.00;;
809;SDS011;387;48.772;9.186;2022-12-13T15:04:51;20.80;;;10.00;;
809;SDS011;387;48.772;9.186;2022-12-13T15:07:22;25.98;;;10.75;;
809;SDS011;387;48.772;9.186;2022-12-13T15:09:57;20.17;;;9.57;;
809;SDS011;387;48.772;9.186;2022-12-13T15:12:29;24.92;;;10.07;;
809;SDS011;387;48.772;9.186;2022-12-13T15:14:59;24.98;;;10.98;;
809;SDS011;387;48.772;9.186;2022-12-13T15:17:38;24.65;;;10.10;;
809;SDS011;387;48.772;9.186;2022-12-13T15:23:02;24.65;;;10.93;;
809;SDS011;387;48.772;9.186;2022-12-13T15:28:31;30.95;;;10.57;;
809;SDS011;387;48.772;9.186;2022-12-13T15:30:59;27.77;;;10.55;;
809;SDS011;387;48.772;9.186;2022-12-13T15:33:26;22.25;;;9.43;;
809;SDS011;387;48.772;9.186;2022-12-13T15:38:42;22.95;;;9.15;;
809;SDS011;387;48.772;9.186;2022-12-13T15:41:15;20.60;;;9.52;;
809;SDS011;387;48.772;9.186;2022-12-13T15:43:47;28.27;;;9.90;;
809;SDS011;387;48.772;9.186;2022-12-13T15:46:27;22.85;;;11.18;;
809;SDS011;387;48.772;9.186;2022-12-13T15:48:55;22.83;;;10.18;;
809;SDS011;387;48.772;9.186;2022-12-13T15:51:23;22.27;;;10.50;;
809;SDS011;387;48.772;9.186;2022-12-13T15:54:04;25.75;;;10.60;;
809;SDS011;387;48.772;9.186;2022-12-13T15:56:36;19.52;;;9.35;;
809;SDS011;387;48.772;9.186;2022-12-13T15:59:23;25.77;;;10.77;;
809;SDS011;387;48.772;9.186;2022-12-13T16:01:49;26.77;;;10.35;;
809;SDS011;387;48.772;9.186;2022-12-13T16:04:19;27.80;;;10.87;;
809;SDS011;387;48.772;9.186;2022-12-13T16:06:50;25.63;;;10.23;;
809;SDS011;387;48.772;9.186;2022-12-13T16:09:20;25.35;;;11.13;;
809;SDS011;387;48.772;9.186;2022-12-13T16:11:50;23.40;;;10.10;;
809;SDS011;387;48.772;9.186;2022-12-13T16:17:01;25.10;;;11.13;;
809;SDS011;387;48.772;9.186;2022-12-13T16:19:33;25.98;;;9.65;;
809;SDS011;387;48.772;9.186;2022-12-13T16:21:58;25.80;;;11.30;;
809;SDS011;387;48.772;9.186;2022-12-13T16:24:24;27.23;;;10.33;;
809;SDS011;387;48.772;9.186;2022-12-13T16:26:49;22.30;;;11.40;;
809;SDS011;387;48.772;9.186;2022-12-13T16:29:16;20.33;;;9.63;;
809;SDS011;387;48.772;9.186;2022-12-13T16:31:45;29.50;;;10.43;;
809;SDS011;387;48.772;9.186;2022-12-13T16:34:11;25.08;;;10.50;;
809;SDS011;387;48.772;9.186;2022-12-13T16:36:38;25.58;;;10.07;;
809;SDS011;387;48.772;9.186;2022-12-13T16:39:04;22.03;;;10.00;;
809;SDS011;387;48.772;9.186;2022-12-13T16:41:34;27.67;;;11.73;;
809;SDS011;387;48.772;9.186;2022-12-13T16:44:02;22.73;;;9.93;;
809;SDS011;387;48.772;9.186;2022-12-13T16:46:29;23.88;;;11.02;;
809;SDS011;387;48.772;9.186;2022-12-13T16:48:55;27.50;;;12.27;;
809;SDS011;387;48.772;9.186;2022-12-13T16:51:21;30.83;;;11.10;;
809;SDS011;387;48.772;9.186;2022-12-13T16:53:47;25.93;;;11.10;;
809;SDS011;387;48.772;9.186;2022-12-13T16:56:13;25.30;;;10.90;;
809;SDS011;387;48.772;9.186;2022-12-13T16:58:45;25.02;;;10.40;;
809;SDS011;387;48.772;9.186;2022-12-13T17:01:12;33.33;;;11.63;;
809;SDS011;387;48.772;9.186;2022-12-13T17:03:39;27.35;;;11.80;;
809;SDS011;387;48.772;9.186;2022-12-13T17:06:05;22.33;;;11.33;;
809;SDS011;387;48.772;9.186;2022-12-13T17:08:34;22.00;;;10.23;;
809;SDS011;387;48.772;9.186;2022-12-13T17:11:00;22.40;;;11.90;;
809;SDS011;387;48.772;9.186;2022-12-13T17:13:26;27.23;;;11.07;;
809;SDS011;387;48.772;9.186;2022-12-13T17:15:51;33.73;;;11.90;;
809;SDS011;387;48.772;9.186;2022-12-13T17:18:17;22.43;;;10.00;;
809;SDS011;387;48.772;9.186;2022-12-13T17:20:43;22.83;;;10.63;;
809;SDS011;387;48.772;9.186;2022-12-13T17:23:09;21.55;;;11.18;;
809;SDS011;387;48.772;9.186;2022-12-13T17:25:36;22.10;;;12.03;;
809;SDS011;387;48.772;9.186;2022-12-13T17:28:05;27.38;;;12.02;;
809;SDS011;387;48.772;9.186;2022-12-13T17:30:31;25.05;;;10.77;;
809;SDS011;387;48.772;9.186;2022-12-13T17:33:03;31.23;;;13.55;;
809;SDS011;387;48.772;9.186;2022-12-13T17:35:32;24.98;;;11.00;;
809;SDS011;387;48.772;9.186;2022-12-13T17:37:58;26.70;;;11.60;;
809;SDS011;387;48.772;9.186;2022-12-13T17:40:24;24.17;;;10.87;;